Time;durP1;ratioP1;P1;durP2;ratioP2;P2;SDS_P1;SDS_P2;PMS_P1;PMS_P2;Temp;Humidity;BMP_temperature;BMP_pressure;BME280_temperature;BME280_humidity;BME280_pressure;Samples;Min_cycle;Max_cycle;Signal;HPM_P1;HPM_P2
2021/09/28 00:00:09;;;;;;;11.80;4.45;;;;;;;;;;5054657;28;20041;-76
2021/09/28 00:02:41;;;;;;;12.35;4.30;;;;;;;;;;5054696;28;20099;-76
2021/09/28 00:05:09;;;;;;;15.90;4.70;;;;;;;;;;5053181;28;20069;-77
2021/09/28 00:07:39;;;;;;;12.75;4.47;;;;;;;;;;5055186;28;20087;-76
2021/09/28 00:10:07;;;;;;;21.20;4.78;;;;;;;;;;5053099;28;20461;-76
2021/09/28 00:12:34;;;;;;;12.52;4.30;;;;;;;;;;5053436;28;20056;-77
2021/09/28 00:15:11;;;;;;;12.02;4.85;;;;;;;;;;5053439;28;20072;-76
2021/09/28 00:17:39;;;;;;;14.30;4.13;;;;;;;;;;5054904;28;20040;-77
2021/09/28 00:20:08;;;;;;;14.93;4.18;;;;;;;;;;5054384;28;20124;-76
2021/09/28 00:22:38;;;;;;;8.88;4.20;;;;;;;;;;5054131;28;20041;-77
2021/09/28 00:25:07;;;;;;;12.70;4.65;;;;;;;;;;5054065;28;20041;-77
2021/09/28 00:27:38;;;;;;;12.10;4.35;;;;;;;;;;5053307;28;20048;-77
2021/09/28 00:30:06;;;;;;;12.15;4.50;;;;;;;;;;5052800;28;20053;-76
2021/09/28 00:32:42;;;;;;;11.98;4.03;;;;;;;;;;5052860;28;20045;-77
2021/09/28 00:35:10;;;;;;;11.93;4.70;;;;;;;;;;5054094;28;20049;-77
2021/09/28 00:37:38;;;;;;;13.32;4.68;;;;;;;;;;5054491;28;20444;-76
2021/09/28 00:40:07;;;;;;;12.32;4.10;;;;;;;;;;5052462;28;20481;-76
2021/09/28 00:42:37;;;;;;;8.90;4.20;;;;;;;;;;5053755;28;20477;-77
2021/09/28 00:45:07;;;;;;;11.07;4.40;;;;;;;;;;5054048;28;20111;-76
2021/09/28 00:47:36;;;;;;;10.77;4.07;;;;;;;;;;5053599;28;20099;-76
2021/09/28 00:50:05;;;;;;;9.27;4.22;;;;;;;;;;5052614;28;20133;-76
2021/09/28 00:52:33;;;;;;;12.57;4.55;;;;;;;;;;5052835;28;20526;-77
2021/09/28 00:55:00;;;;;;;10.40;4.28;;;;;;;;;;5053390;28;20040;-76
2021/09/28 00:57:32;;;;;;;10.63;4.25;;;;;;;;;;5053856;28;20051;-77
2021/09/28 01:00:03;;;;;;;17.35;4.28;;;;;;;;;;5053666;28;20131;-77
2021/09/28 01:02:31;;;;;;;12.38;3.92;;;;;;;;;;5053515;28;20048;-77
2021/09/28 01:05:03;;;;;;;10.15;4.20;;;;;;;;;;5053490;28;20571;-76
2021/09/28 01:07:31;;;;;;;9.13;3.80;;;;;;;;;;5053571;28;20127;-77
2021/09/28 01:10:01;;;;;;;16.92;4.05;;;;;;;;;;5053491;28;20440;-77
2021/09/28 01:12:30;;;;;;;11.18;3.88;;;;;;;;;;5053557;28;20116;-77
2021/09/28 01:14:58;;;;;;;11.50;4.13;;;;;;;;;;5053731;28;20048;-77
2021/09/28 01:17:29;;;;;;;11.13;4.13;;;;;;;;;;5052948;28;20514;-77
2021/09/28 01:20:05;;;;;;;12.27;3.72;;;;;;;;;;5053307;28;20044;-76
2021/09/28 01:22:32;;;;;;;11.35;4.00;;;;;;;;;;5053123;28;20569;-76
2021/09/28 01:25:01;;;;;;;8.80;4.20;;;;;;;;;;5053364;28;20056;-76
2021/09/28 01:27:34;;;;;;;10.93;4.30;;;;;;;;;;5035167;28;20524;-77
2021/09/28 01:30:04;;;;;;;11.57;3.83;;;;;;;;;;5031220;28;20080;-77
2021/09/28 01:32:32;;;;;;;12.23;3.95;;;;;;;;;;5033356;28;20065;-77
2021/09/28 01:35:02;;;;;;;11.48;3.85;;;;;;;;;;5033640;28;20115;-76
2021/09/28 01:37:32;;;;;;;11.52;4.03;;;;;;;;;;5033046;28;20051;-77
2021/09/28 01:40:01;;;;;;;12.68;4.38;;;;;;;;;;5033247;28;20049;-77
2021/09/28 01:42:29;;;;;;;8.50;3.97;;;;;;;;;;5032934;28;20116;-76
2021/09/28 01:44:56;;;;;;;10.38;4.75;;;;;;;;;;5032738;28;20056;-77
2021/09/28 01:47:27;;;;;;;11.70;4.28;;;;;;;;;;5033181;28;20040;-77
2021/09/28 01:49:55;;;;;;;8.30;4.00;;;;;;;;;;5033249;28;20065;-77
2021/09/28 01:52:24;;;;;;;15.18;3.63;;;;;;;;;;5031651;28;20037;-76
2021/09/28 01:54:52;;;;;;;11.50;3.97;;;;;;;;;;5032850;28;20152;-77
2021/09/28 01:57:20;;;;;;;14.73;6.18;;;;;;;;;;5031488;28;20409;-76
2021/09/28 01:59:48;;;;;;;18.58;5.97;;;;;;;;;;5032521;28;20045;-77
2021/09/28 02:02:20;;;;;;;13.15;5.80;;;;;;;;;;5031368;28;20103;-76
2021/09/28 02:04:50;;;;;;;16.85;5.68;;;;;;;;;;5032669;28;20132;-77
2021/09/28 02:07:24;;;;;;;12.65;5.57;;;;;;;;;;5033978;28;20079;-77
2021/09/28 02:09:51;;;;;;;10.85;5.22;;;;;;;;;;5036830;28;20128;-77
2021/09/28 02:12:18;;;;;;;18.83;5.22;;;;;;;;;;5036612;28;20041;-76
2021/09/28 02:14:47;;;;;;;12.60;5.45;;;;;;;;;;5036539;28;20056;-77
2021/09/28 02:17:15;;;;;;;9.63;4.80;;;;;;;;;;5035310;28;20211;-76
2021/09/28 02:19:47;;;;;;;11.32;4.82;;;;;;;;;;5036519;28;20481;-77
2021/09/28 02:22:15;;;;;;;13.60;4.75;;;;;;;;;;5036306;28;20437;-76
2021/09/28 02:24:46;;;;;;;13.05;4.90;;;;;;;;;;5036239;28;20045;-76
2021/09/28 02:27:15;;;;;;;9.90;4.50;;;;;;;;;;5035311;28;20467;-77
2021/09/28 02:29:43;;;;;;;9.65;3.83;;;;;;;;;;5036297;28;20047;-76
2021/09/28 02:32:13;;;;;;;9.10;4.53;;;;;;;;;;5036829;28;20041;-77
2021/09/28 02:34:41;;;;;;;11.32;5.18;;;;;;;;;;5035363;28;20041;-77
2021/09/28 02:37:11;;;;;;;11.40;5.05;;;;;;;;;;5035409;28;20516;-76
2021/09/28 02:39:40;;;;;;;20.55;5.68;;;;;;;;;;5034887;28;20459;-76
2021/09/28 02:42:08;;;;;;;17.10;5.22;;;;;;;;;;5036253;28;20037;-76
2021/09/28 02:44:35;;;;;;;12.38;5.57;;;;;;;;;;5035042;28;20500;-77
2021/09/28 02:47:03;;;;;;;18.63;5.55;;;;;;;;;;5036411;28;20668;-77
2021/09/28 02:49:31;;;;;;;13.02;5.53;;;;;;;;;;5036353;28;20037;-77
2021/09/28 02:52:01;;;;;;;10.05;5.00;;;;;;;;;;5038136;28;20041;-77
2021/09/28 02:54:29;;;;;;;17.05;5.43;;;;;;;;;;5035728;28;20069;-76
2021/09/28 02:56:59;;;;;;;14.30;5.10;;;;;;;;;;5036103;28;20069;-76
2021/09/28 02:59:35;;;;;;;12.85;5.10;;;;;;;;;;5051138;28;20041;-76
2021/09/28 03:02:05;;;;;;;12.13;4.85;;;;;;;;;;5034719;28;20124;-76
2021/09/28 03:04:33;;;;;;;13.32;5.60;;;;;;;;;;5035731;28;20037;-76
2021/09/28 03:07:01;;;;;;;12.82;5.30;;;;;;;;;;5035714;28;20041;-76
2021/09/28 03:09:28;;;;;;;14.95;5.57;;;;;;;;;;5034843;28;20045;-76
2021/09/28 03:11:55;;;;;;;9.90;4.90;;;;;;;;;;5035373;28;20043;-76
2021/09/28 03:14:27;;;;;;;10.32;4.85;;;;;;;;;;5036169;28;20100;-77
2021/09/28 03:16:55;;;;;;;14.32;4.40;;;;;;;;;;5035438;28;20033;-76
2021/09/28 03:19:26;;;;;;;16.30;5.28;;;;;;;;;;5035420;28;20557;-77
2021/09/28 03:21:54;;;;;;;14.00;4.78;;;;;;;;;;5033966;28;20053;-76
2021/09/28 03:24:22;;;;;;;11.15;4.40;;;;;;;;;;5034492;28;20042;-77
2021/09/28 03:26:51;;;;;;;13.82;5.40;;;;;;;;;;5035271;28;20041;-77
2021/09/28 03:29:20;;;;;;;10.07;4.88;;;;;;;;;;5035118;28;20382;-77
2021/09/28 03:31:48;;;;;;;11.38;5.22;;;;;;;;;;5050983;28;20132;-76
2021/09/28 03:34:15;;;;;;;16.88;5.38;;;;;;;;;;5035251;28;20064;-77
2021/09/28 03:36:44;;;;;;;12.18;5.70;;;;;;;;;;5035080;28;20133;-77
2021/09/28 03:39:16;;;;;;;14.45;5.32;;;;;;;;;;5035391;28;20050;-77
2021/09/28 03:41:44;;;;;;;18.17;5.78;;;;;;;;;;5033598;28;20129;-76
2021/09/28 03:44:13;;;;;;;14.00;5.43;;;;;;;;;;5035003;28;20053;-75
2021/09/28 03:46:41;;;;;;;12.68;5.20;;;;;;;;;;5034100;28;20430;-74
2021/09/28 03:49:09;;;;;;;12.38;5.20;;;;;;;;;;5034969;28;20045;-75
2021/09/28 03:51:37;;;;;;;14.57;5.57;;;;;;;;;;5034192;28;20136;-75
2021/09/28 03:54:07;;;;;;;14.77;5.70;;;;;;;;;;5035209;28;20116;-74
2021/09/28 03:56:36;;;;;;;13.98;5.80;;;;;;;;;;5049926;28;20041;-74
2021/09/28 03:59:05;;;;;;;13.07;6.25;;;;;;;;;;5035096;28;20053;-74
2021/09/28 04:01:33;;;;;;;11.55;5.25;;;;;;;;;;5034938;28;20052;-74
2021/09/28 04:04:02;;;;;;;13.93;5.40;;;;;;;;;;5033552;28;20049;-75
2021/09/28 04:06:31;;;;;;;13.60;5.55;;;;;;;;;;5034865;28;20052;-74
2021/09/28 04:08:59;;;;;;;13.85;5.60;;;;;;;;;;5033564;28;20084;-74
2021/09/28 04:11:27;;;;;;;15.75;6.18;;;;;;;;;;5034474;28;20048;-74
2021/09/28 04:13:57;;;;;;;10.85;5.65;;;;;;;;;;5035110;28;20354;-75
2021/09/28 04:16:27;;;;;;;12.13;5.57;;;;;;;;;;5034167;28;20052;-74
2021/09/28 04:18:57;;;;;;;8.65;5.35;;;;;;;;;;5033211;28;20051;-75
2021/09/28 04:21:27;;;;;;;12.95;4.95;;;;;;;;;;5033469;28;20045;-77
2021/09/28 04:23:54;;;;;;;10.13;5.22;;;;;;;;;;5034447;28;20041;-75
2021/09/28 04:26:25;;;;;;;12.88;5.22;;;;;;;;;;5034439;28;20042;-74
2021/09/28 04:28:54;;;;;;;17.90;5.70;;;;;;;;;;5034576;28;20385;-76
2021/09/28 04:31:26;;;;;;;10.68;5.22;;;;;;;;;;5033934;28;20111;-77
2021/09/28 04:33:54;;;;;;;16.23;5.93;;;;;;;;;;5034576;28;20064;-77
2021/09/28 04:36:24;;;;;;;19.08;5.15;;;;;;;;;;5032754;28;20048;-77
2021/09/28 04:38:53;;;;;;;18.15;6.68;;;;;;;;;;5034018;28;20493;-77
2021/09/28 04:41:24;;;;;;;15.15;6.60;;;;;;;;;;5033909;28;20055;-77
2021/09/28 04:43:51;;;;;;;22.67;6.95;;;;;;;;;;5032951;28;20124;-77
2021/09/28 04:46:24;;;;;;;17.45;6.15;;;;;;;;;;5033698;28;20041;-77
2021/09/28 04:48:53;;;;;;;17.25;6.13;;;;;;;;;;5033736;28;20042;-77
2021/09/28 04:51:20;;;;;;;12.30;6.30;;;;;;;;;;5033782;28;20041;-77
2021/09/28 04:53:50;;;;;;;19.45;6.30;;;;;;;;;;5034096;28;20060;-77
2021/09/28 04:56:17;;;;;;;30.60;7.53;;;;;;;;;;5032457;28;20049;-77
2021/09/28 04:58:45;;;;;;;22.05;7.07;;;;;;;;;;5033943;28;20041;-78
2021/09/28 05:01:12;;;;;;;18.13;6.88;;;;;;;;;;5033176;28;20133;-78
2021/09/28 05:03:42;;;;;;;17.50;7.15;;;;;;;;;;5032457;28;20049;-77
2021/09/28 05:06:12;;;;;;;15.63;6.68;;;;;;;;;;5032254;28;20393;-78
2021/09/28 05:08:40;;;;;;;11.43;6.10;;;;;;;;;;5032408;28;20112;-78
2021/09/28 05:11:14;;;;;;;11.45;6.53;;;;;;;;;;5032383;28;20060;-78
2021/09/28 05:13:42;;;;;;;13.68;6.78;;;;;;;;;;5032301;28;20048;-77
2021/09/28 05:16:09;;;;;;;26.30;7.65;;;;;;;;;;5033010;28;20048;-78
2021/09/28 05:18:39;;;;;;;34.95;13.93;;;;;;;;;;5032284;28;20103;-78
2021/09/28 05:21:09;;;;;;;19.63;8.73;;;;;;;;;;5032231;28;20144;-78
2021/09/28 05:23:37;;;;;;;14.50;7.32;;;;;;;;;;5032919;28;20071;-78
2021/09/28 05:26:05;;;;;;;13.60;6.72;;;;;;;;;;5033237;28;20151;-78
2021/09/28 05:28:33;;;;;;;29.35;7.63;;;;;;;;;;5031683;28;20493;-78
2021/09/28 05:31:04;;;;;;;19.58;8.13;;;;;;;;;;5030015;28;20053;-78
2021/09/28 05:33:37;;;;;;;18.75;7.13;;;;;;;;;;5033020;28;20043;-77
2021/09/28 05:36:04;;;;;;;16.08;7.10;;;;;;;;;;5033132;28;20037;-78
2021/09/28 05:38:35;;;;;;;23.90;8.50;;;;;;;;;;5032496;28;20045;-77
2021/09/28 05:41:09;;;;;;;16.50;7.25;;;;;;;;;;5032472;28;20076;-78
2021/09/28 05:43:39;;;;;;;17.38;6.93;;;;;;;;;;5031894;28;20052;-77
2021/09/28 05:46:08;;;;;;;16.92;6.95;;;;;;;;;;5030741;28;20463;-77
2021/09/28 05:48:35;;;;;;;23.58;8.70;;;;;;;;;;5031387;28;20037;-77
2021/09/28 05:51:13;;;;;;;20.55;8.90;;;;;;;;;;5029938;28;20132;-75
2021/09/28 05:53:45;;;;;;;11.27;7.70;;;;;;;;;;5033188;28;20116;-75
2021/09/28 05:56:13;;;;;;;23.98;8.27;;;;;;;;;;5031383;28;20045;-75
2021/09/28 05:58:41;;;;;;;14.70;7.57;;;;;;;;;;5031233;28;20046;-77
2021/09/28 06:01:09;;;;;;;18.67;8.07;;;;;;;;;;5032471;28;20037;-77
2021/09/28 06:03:40;;;;;;;22.35;7.47;;;;;;;;;;5030719;28;20061;-77
2021/09/28 06:06:07;;;;;;;20.17;7.53;;;;;;;;;;5047247;28;20401;-78
2021/09/28 06:08:35;;;;;;;23.63;7.90;;;;;;;;;;5031246;28;20081;-77
2021/09/28 06:11:06;;;;;;;68.68;11.68;;;;;;;;;;5031062;28;20037;-79
2021/09/28 06:13:33;;;;;;;44.33;10.07;;;;;;;;;;5031557;28;20485;-76
2021/09/28 06:16:01;;;;;;;33.50;13.77;;;;;;;;;;5031959;28;20048;-75
2021/09/28 06:18:29;;;;;;;27.70;8.18;;;;;;;;;;5031998;28;20045;-75
2021/09/28 06:20:57;;;;;;;23.00;7.78;;;;;;;;;;5032190;28;20076;-78
2021/09/28 06:23:27;;;;;;;17.83;7.43;;;;;;;;;;5032759;28;20131;-75
2021/09/28 06:25:54;;;;;;;20.75;7.88;;;;;;;;;;5031166;28;20430;-75
2021/09/28 06:28:23;;;;;;;23.20;9.05;;;;;;;;;;5032395;28;20116;-77
2021/09/28 06:30:51;;;;;;;24.88;8.90;;;;;;;;;;5031937;28;20069;-78
2021/09/28 06:33:20;;;;;;;24.92;8.48;;;;;;;;;;5030311;28;20069;-76
2021/09/28 06:35:50;;;;;;;25.60;8.23;;;;;;;;;;5032256;28;20117;-77
2021/09/28 06:38:23;;;;;;;24.63;7.07;;;;;;;;;;5032326;28;20037;-75
2021/09/28 06:40:53;;;;;;;21.98;7.07;;;;;;;;;;5032210;28;20564;-75
2021/09/28 06:43:20;;;;;;;21.05;7.13;;;;;;;;;;5030823;28;20049;-76
2021/09/28 06:45:48;;;;;;;23.27;8.20;;;;;;;;;;5032064;28;20485;-78
2021/09/28 06:48:18;;;;;;;20.70;7.63;;;;;;;;;;5032233;28;20037;-78
2021/09/28 06:50:47;;;;;;;19.23;7.50;;;;;;;;;;5030088;28;20108;-78
2021/09/28 06:53:15;;;;;;;17.35;7.15;;;;;;;;;;5033249;28;20037;-75
2021/09/28 06:55:46;;;;;;;13.63;7.03;;;;;;;;;;5035887;28;20030;-76
2021/09/28 06:58:16;;;;;;;36.85;8.73;;;;;;;;;;5035528;28;20047;-76
2021/09/28 07:00:45;;;;;;;27.40;8.27;;;;;;;;;;5035810;28;20037;-77
2021/09/28 07:03:13;;;;;;;26.27;8.23;;;;;;;;;;5035495;28;20041;-75
2021/09/28 07:05:41;;;;;;;23.83;7.85;;;;;;;;;;5034350;28;20128;-74
2021/09/28 07:08:13;;;;;;;24.80;7.80;;;;;;;;;;5035567;28;20488;-74
2021/09/28 07:10:44;;;;;;;25.95;8.13;;;;;;;;;;5035391;28;20104;-73
2021/09/28 07:13:19;;;;;;;24.52;6.78;;;;;;;;;;5035829;28;20418;-74
2021/09/28 07:15:47;;;;;;;18.38;6.95;;;;;;;;;;5034146;28;20415;-74
2021/09/28 07:18:15;;;;;;;18.63;6.45;;;;;;;;;;5033837;28;20042;-74
2021/09/28 07:20:45;;;;;;;22.23;7.38;;;;;;;;;;5035210;28;20059;-74
2021/09/28 07:23:13;;;;;;;16.00;6.80;;;;;;;;;;5035599;28;20041;-74
2021/09/28 07:25:43;;;;;;;20.17;7.45;;;;;;;;;;5034689;28;20037;-74
2021/09/28 07:28:14;;;;;;;17.02;7.25;;;;;;;;;;5034215;28;20124;-75
2021/09/28 07:30:44;;;;;;;23.15;6.97;;;;;;;;;;5035353;28;20049;-74
2021/09/28 07:33:12;;;;;;;20.65;7.18;;;;;;;;;;5033973;28;20033;-74
2021/09/28 07:35:43;;;;;;;24.77;7.45;;;;;;;;;;5035432;28;20045;-74
2021/09/28 07:38:11;;;;;;;;;;;;;;;;;;5035713;28;20045;-74
2021/09/28 07:40:39;;;;;;;22.52;7.40;;;;;;;;;;5033861;28;20323;-74
2021/09/28 07:43:07;;;;;;;23.65;7.75;;;;;;;;;;5050654;28;20140;-74
2021/09/28 07:45:35;;;;;;;15.60;5.85;;;;;;;;;;5035076;28;20068;-74
2021/09/28 07:48:06;;;;;;;17.70;6.18;;;;;;;;;;5034519;28;20128;-74
2021/09/28 07:50:34;;;;;;;15.85;6.13;;;;;;;;;;5035279;28;20045;-74
2021/09/28 07:53:05;;;;;;;22.77;6.97;;;;;;;;;;5033739;28;20461;-74
2021/09/28 07:55:34;;;;;;;20.48;6.47;;;;;;;;;;5034982;28;20044;-74
2021/09/28 07:58:02;;;;;;;19.83;6.35;;;;;;;;;;5033980;28;20052;-74
2021/09/28 08:00:31;;;;;;;19.98;6.70;;;;;;;;;;5034643;28;20125;-76
2021/09/28 08:03:01;;;;;;;23.02;7.60;;;;;;;;;;5034453;28;20046;-74
2021/09/28 08:05:29;;;;;;;16.90;7.60;;;;;;;;;;5033949;28;20041;-74
2021/09/28 08:07:56;;;;;;;21.17;8.07;;;;;;;;;;5034676;28;20041;-74
2021/09/28 08:10:24;;;;;;;22.35;7.90;;;;;;;;;;5034577;28;20048;-74
2021/09/28 08:12:59;;;;;;;21.80;8.10;;;;;;;;;;5034535;28;20041;-73
2021/09/28 08:15:27;;;;;;;21.70;8.40;;;;;;;;;;5034374;28;20045;-74
2021/09/28 08:17:55;;;;;;;20.88;8.23;;;;;;;;;;5034483;28;20489;-73
2021/09/28 08:20:25;;;;;;;21.70;8.20;;;;;;;;;;5034441;28;20045;-74
2021/09/28 08:22:53;;;;;;;25.67;8.65;;;;;;;;;;5034584;28;20057;-74
2021/09/28 08:25:24;;;;;;;21.85;7.72;;;;;;;;;;5031804;28;20120;-74
2021/09/28 08:30:39;;;;;;;19.45;8.02;;;;;;;;;;5136096;22;20154;-74
2021/09/28 08:33:11;;;;;;;25.88;8.35;;;;;;;;;;5053835;28;20174;-74
2021/09/28 08:35:39;;;;;;;19.15;7.47;;;;;;;;;;5053743;28;20381;-74
2021/09/28 08:38:07;;;;;;;20.95;8.02;;;;;;;;;;5053993;28;20033;-74
2021/09/28 08:40:39;;;;;;;;;;;;;;;;;;5054404;28;20040;-74
2021/09/28 08:43:08;;;;;;;23.35;7.63;;;;;;;;;;5054007;28;20375;-74
2021/09/28 08:45:38;;;;;;;27.52;7.60;;;;;;;;;;5053656;28;20036;-75
2021/09/28 08:48:06;;;;;;;17.08;7.57;;;;;;;;;;5053612;28;20048;-74
2021/09/28 08:50:38;;;;;;;22.17;8.10;;;;;;;;;;5053563;28;20090;-75
2021/09/28 08:53:09;;;;;;;18.92;7.35;;;;;;;;;;5052180;28;20029;-75
2021/09/28 08:55:37;;;;;;;32.35;7.18;;;;;;;;;;5053706;28;20484;-75
2021/09/28 08:58:12;;;;;;;23.60;7.90;;;;;;;;;;5053372;28;20118;-75
2021/09/28 09:00:40;;;;;;;16.35;7.53;;;;;;;;;;5053306;28;20496;-75
2021/09/28 09:03:23;;;;;;;19.27;7.90;;;;;;;;;;5053772;28;20115;-75
2021/09/28 09:05:51;;;;;;;;;;;;;;;;;;5053487;28;20083;-75
2021/09/28 09:08:24;;;;;;;23.83;7.88;;;;;;;;;;5053061;28;20375;-74
2021/09/28 09:11:08;;;;;;;16.42;6.93;;;;;;;;;;5053325;28;20044;-75
2021/09/28 09:13:54;;;;;;;25.07;8.20;;;;;;;;;;5051973;28;20045;-75
2021/09/28 09:16:35;;;;;;;17.42;7.13;;;;;;;;;;5051785;28;20036;-75
2021/09/28 09:19:13;;;;;;;16.35;7.55;;;;;;;;;;5052986;28;20511;-74
2021/09/28 09:21:44;;;;;;;20.48;7.05;;;;;;;;;;5053121;28;20098;-74
2021/09/28 09:24:12;;;;;;;17.45;7.47;;;;;;;;;;5035061;28;20044;-75
2021/09/28 09:26:46;;;;;;;18.15;7.50;;;;;;;;;;5032163;28;20403;-75
2021/09/28 09:29:33;;;;;;;16.52;7.30;;;;;;;;;;5034674;28;20064;-74
2021/09/28 09:32:01;;;;;;;16.77;7.40;;;;;;;;;;5047092;28;20053;-76
2021/09/28 09:34:28;;;;;;;18.42;7.70;;;;;;;;;;5053143;28;20071;-74
2021/09/28 09:37:05;;;;;;;15.85;7.40;;;;;;;;;;5052487;28;20856;-75
2021/09/28 09:39:49;;;;;;;20.33;7.47;;;;;;;;;;5052772;28;20159;-75
2021/09/28 09:42:18;;;;;;;22.40;7.93;;;;;;;;;;5052876;28;20455;-74
2021/09/28 09:44:48;;;;;;;16.73;7.90;;;;;;;;;;5052807;28;20049;-74
2021/09/28 09:47:29;;;;;;;16.02;7.32;;;;;;;;;;5052674;28;20029;-74
2021/09/28 09:50:11;;;;;;;15.82;7.60;;;;;;;;;;5052313;28;20045;-74
2021/09/28 09:52:55;;;;;;;20.50;7.68;;;;;;;;;;5052802;28;20071;-74
2021/09/28 09:55:26;;;;;;;22.92;7.88;;;;;;;;;;5052684;28;20374;-75
2021/09/28 09:58:00;;;;;;;13.20;7.55;;;;;;;;;;5052652;28;20041;-74
2021/09/28 10:00:28;;;;;;;16.50;7.45;;;;;;;;;;5051243;28;20416;-74
2021/09/28 10:02:58;;;;;;;20.38;7.88;;;;;;;;;;5052484;28;20120;-74
2021/09/28 10:05:26;;;;;;;15.57;7.68;;;;;;;;;;5052296;28;20045;-74
2021/09/28 10:07:56;;;;;;;17.85;8.32;;;;;;;;;;5052336;28;20045;-74
2021/09/28 10:10:24;;;;;;;23.50;7.85;;;;;;;;;;5052450;28;20068;-75
2021/09/28 10:12:54;;;;;;;21.02;8.02;;;;;;;;;;5052065;28;20041;-75
2021/09/28 10:15:22;;;;;;;18.88;7.40;;;;;;;;;;5051925;28;20547;-74
2021/09/28 10:17:53;;;;;;;17.27;8.02;;;;;;;;;;5052588;28;20041;-74
2021/09/28 10:20:24;;;;;;;14.60;7.32;;;;;;;;;;5052235;28;20048;-74
2021/09/28 10:22:53;;;;;;;20.88;6.53;;;;;;;;;;5052277;28;20041;-74
2021/09/28 10:25:30;;;;;;;14.85;7.15;;;;;;;;;;5052640;28;20083;-75
2021/09/28 10:28:04;;;;;;;16.08;7.05;;;;;;;;;;5052228;28;20041;-75
2021/09/28 10:30:34;;;;;;;22.17;7.15;;;;;;;;;;5056204;28;20063;-74
2021/09/28 10:33:12;;;;;;;20.23;7.47;;;;;;;;;;5056299;28;20070;-74
2021/09/28 10:35:55;;;;;;;25.70;7.07;;;;;;;;;;5056343;28;20049;-75
2021/09/28 10:38:53;;;;;;;21.00;6.93;;;;;;;;;;5056296;28;20045;-75
2021/09/28 10:41:46;;;;;;;17.00;7.60;;;;;;;;;;5044285;28;20407;-74
2021/09/28 10:44:47;;;;;;;13.90;6.60;;;;;;;;;;5054761;28;20542;-75
2021/09/28 10:47:33;;;;;;;19.00;6.70;;;;;;;;;;5023449;28;20057;-75
2021/09/28 10:50:15;;;;;;;16.48;6.70;;;;;;;;;;5055379;28;20450;-74
2021/09/28 10:52:43;;;;;;;17.13;7.05;;;;;;;;;;5054769;28;20106;-75
2021/09/28 10:55:14;;;;;;;21.52;7.30;;;;;;;;;;5055778;28;20052;-74
2021/09/28 11:01:09;;;;;;;21.98;7.40;;;;;;;;;;5064425;28;20064;-74
2021/09/28 11:03:51;;;;;;;21.83;7.03;;;;;;;;;;5055584;28;20048;-75
2021/09/28 11:06:38;;;;;;;25.60;7.85;;;;;;;;;;5054629;28;20512;-74
2021/09/28 11:09:06;;;;;;;17.58;7.05;;;;;;;;;;5055079;28;20116;-74
2021/09/28 11:11:34;;;;;;;23.27;7.35;;;;;;;;;;5055091;28;20045;-74
2021/09/28 11:14:04;;;;;;;23.77;7.60;;;;;;;;;;5053471;28;20053;-74
2021/09/28 11:16:39;;;;;;;15.25;6.95;;;;;;;;;;5055280;28;20492;-74
2021/09/28 11:19:09;;;;;;;22.08;8.40;;;;;;;;;;5054805;28;20045;-74
2021/09/28 11:21:40;;;;;;;21.42;7.93;;;;;;;;;;5070149;28;20043;-74
2021/09/28 11:24:10;;;;;;;19.70;6.97;;;;;;;;;;5054091;28;20044;-74
2021/09/28 11:26:41;;;;;;;20.52;7.72;;;;;;;;;;5054699;28;20069;-75
2021/09/28 11:29:11;;;;;;;19.20;7.80;;;;;;;;;;5054615;28;20076;-76
2021/09/28 11:31:41;;;;;;;;;;;;;;;;;;5054657;28;20098;-74
2021/09/28 11:34:25;;;;;;;16.58;8.00;;;;;;;;;;5053264;28;19966;-74
2021/09/28 11:37:16;;;;;;;21.45;8.05;;;;;;;;;;5054658;28;20049;-75
2021/09/28 11:39:48;;;;;;;22.38;8.05;;;;;;;;;;5053191;28;20053;-74
2021/09/28 11:42:17;;;;;;;22.42;8.98;;;;;;;;;;5054434;28;20056;-75
2021/09/28 11:44:48;;;;;;;19.23;8.20;;;;;;;;;;5053282;28;20056;-75
2021/09/28 11:47:20;;;;;;;26.92;9.02;;;;;;;;;;5054367;28;20096;-75
2021/09/28 11:49:48;;;;;;;;;;;;;;;;;;5055187;28;20120;-74
2021/09/28 11:52:19;;;;;;;22.02;8.30;;;;;;;;;;5070253;28;19924;-74
2021/09/28 11:54:48;;;;;;;23.23;8.07;;;;;;;;;;5054732;28;20108;-74
2021/09/28 11:57:18;;;;;;;21.25;7.60;;;;;;;;;;5054634;28;20072;-74
2021/09/28 11:59:46;;;;;;;23.08;6.95;;;;;;;;;;5054816;28;20095;-74
2021/09/28 12:02:17;;;;;;;19.40;7.03;;;;;;;;;;5054311;28;20537;-74
2021/09/28 12:10:17;;;;;;;19.70;6.80;;;;;;;;;;5054529;28;20069;-74
2021/09/28 12:12:45;;;;;;;21.65;6.28;;;;;;;;;;5054168;28;20041;-73
2021/09/28 12:15:14;;;;;;;21.73;6.22;;;;;;;;;;5054105;28;20039;-74
2021/09/28 12:17:43;;;;;;;22.80;6.03;;;;;;;;;;5054521;28;20488;-73
2021/09/28 12:20:21;;;;;;;17.05;5.25;;;;;;;;;;5053283;28;20719;-74
2021/09/28 12:22:49;;;;;;;19.25;6.20;;;;;;;;;;5052826;28;20048;-74
2021/09/28 12:25:20;;;;;;;23.05;5.63;;;;;;;;;;5053260;28;20040;-74
2021/09/28 12:27:58;;;;;;;17.02;5.00;;;;;;;;;;5054018;28;20455;-74
2021/09/28 12:30:30;;;;;;;25.55;6.72;;;;;;;;;;5053908;28;20041;-73
2021/09/28 12:32:58;;;;;;;24.25;6.00;;;;;;;;;;5052892;28;20132;-74
2021/09/28 12:35:35;;;;;;;19.45;5.40;;;;;;;;;;5054207;28;20045;-74
2021/09/28 12:38:08;;;;;;;25.05;5.97;;;;;;;;;;5052682;28;20049;-74
2021/09/28 12:40:44;;;;;;;27.20;6.18;;;;;;;;;;5054216;28;20048;-73
2021/09/28 12:43:12;;;;;;;28.58;6.10;;;;;;;;;;5052767;28;20048;-73
2021/09/28 12:46:00;;;;;;;21.77;5.10;;;;;;;;;;5053647;28;20472;-75
2021/09/28 12:48:35;;;;;;;23.92;5.80;;;;;;;;;;5053770;28;20090;-74
2021/09/28 12:51:05;;;;;;;25.75;6.20;;;;;;;;;;5053168;28;20041;-74
2021/09/28 12:53:33;;;;;;;19.38;5.57;;;;;;;;;;5053548;28;20060;-74
2021/09/28 12:56:03;;;;;;;21.02;5.45;;;;;;;;;;5053723;28;20114;-74
2021/09/28 12:58:37;;;;;;;30.05;6.97;;;;;;;;;;5052188;28;20369;-77
2021/09/28 13:01:07;;;;;;;27.80;6.05;;;;;;;;;;5050241;28;20524;-78
2021/09/28 13:03:36;;;;;;;23.40;6.38;;;;;;;;;;5052463;28;20094;-77
2021/09/28 13:06:10;;;;;;;19.83;6.20;;;;;;;;;;5049289;28;20048;-77
2021/09/28 13:08:39;;;;;;;23.58;5.90;;;;;;;;;;5052810;28;20058;-75
2021/09/28 13:11:09;;;;;;;23.80;6.65;;;;;;;;;;5033040;28;20041;-77
2021/09/28 13:13:39;;;;;;;31.52;6.97;;;;;;;;;;5032315;28;20080;-75
2021/09/28 13:16:06;;;;;;;22.20;6.32;;;;;;;;;;5033797;28;20068;-75
2021/09/28 13:18:38;;;;;;;26.13;6.28;;;;;;;;;;5051302;28;20095;-75
2021/09/28 13:21:10;;;;;;;22.08;6.00;;;;;;;;;;5052824;28;20044;-76
2021/09/28 13:23:39;;;;;;;25.58;6.43;;;;;;;;;;5053507;28;20102;-78
2021/09/28 13:26:07;;;;;;;27.85;6.20;;;;;;;;;;5053418;28;20049;-79
2021/09/28 13:28:38;;;;;;;22.85;6.40;;;;;;;;;;5053168;28;20542;-77
2021/09/28 13:31:05;;;;;;;23.73;6.25;;;;;;;;;;5052383;28;20049;-78
2021/09/28 13:33:35;;;;;;;20.98;6.50;;;;;;;;;;5051937;28;20045;-78
2021/09/28 13:36:03;;;;;;;28.40;6.95;;;;;;;;;;5053307;28;20095;-79
2021/09/28 13:38:33;;;;;;;25.73;6.63;;;;;;;;;;5052860;28;20079;-77
2021/09/28 13:41:02;;;;;;;30.40;7.95;;;;;;;;;;5053279;28;20151;-77
2021/09/28 13:43:30;;;;;;;32.83;6.93;;;;;;;;;;5053376;28;20090;-79
2021/09/28 13:46:01;;;;;;;28.08;6.57;;;;;;;;;;5053399;28;20045;-78
2021/09/28 13:48:30;;;;;;;;;;;;;;;;;;5053647;28;20041;-75
2021/09/28 13:51:00;;;;;;;27.15;7.32;;;;;;;;;;5052233;28;19925;-76
2021/09/28 13:53:30;;;;;;;21.83;6.75;;;;;;;;;;5048346;28;20056;-77
2021/09/28 13:55:58;;;;;;;26.13;7.22;;;;;;;;;;5049444;28;20523;-75
2021/09/28 13:58:26;;;;;;;25.67;6.72;;;;;;;;;;5052603;28;20045;-75
2021/09/28 14:00:58;;;;;;;20.23;5.95;;;;;;;;;;5053173;28;20480;-75
2021/09/28 14:03:28;;;;;;;27.58;6.57;;;;;;;;;;5054388;28;20086;-76
2021/09/28 14:05:55;;;;;;;27.95;6.90;;;;;;;;;;5057136;28;20052;-76
2021/09/28 14:08:23;;;;;;;28.35;6.63;;;;;;;;;;5055677;28;20045;-75
2021/09/28 14:10:50;;;;;;;28.17;6.57;;;;;;;;;;5056960;28;20045;-75
2021/09/28 14:13:18;;;;;;;30.77;7.13;;;;;;;;;;5056993;28;20049;-76
2021/09/28 14:15:48;;;;;;;19.67;6.10;;;;;;;;;;5056658;28;20045;-76
2021/09/28 14:18:19;;;;;;;23.45;6.97;;;;;;;;;;5056711;28;20043;-76
2021/09/28 14:20:51;;;;;;;23.67;6.47;;;;;;;;;;5055438;28;20043;-78
2021/09/28 14:23:19;;;;;;;24.17;6.07;;;;;;;;;;5056818;28;20041;-79
2021/09/28 14:26:02;;;;;;;21.57;5.80;;;;;;;;;;5054942;28;20464;-81
2021/09/28 14:28:30;;;;;;;30.90;6.35;;;;;;;;;;5056532;28;20295;-78
2021/09/28 14:31:04;;;;;;;33.08;6.30;;;;;;;;;;5055216;28;20053;-77
2021/09/28 14:33:34;;;;;;;25.52;6.35;;;;;;;;;;5056688;28;20040;-78
2021/09/28 14:36:05;;;;;;;20.00;6.43;;;;;;;;;;5055236;28;20145;-79
2021/09/28 14:38:34;;;;;;;28.13;6.38;;;;;;;;;;5055089;28;20127;-74
2021/09/28 14:41:06;;;;;;;24.70;6.15;;;;;;;;;;5056679;28;20072;-76
2021/09/28 14:43:35;;;;;;;29.43;6.33;;;;;;;;;;5056212;28;20041;-75
2021/09/28 14:46:02;;;;;;;26.88;6.90;;;;;;;;;;5056377;28;20037;-74
2021/09/28 14:48:35;;;;;;;24.95;6.43;;;;;;;;;;5051392;28;20037;-74
2021/09/28 14:51:03;;;;;;;22.75;7.07;;;;;;;;;;5053717;28;20045;-75
2021/09/28 14:53:31;;;;;;;18.20;6.47;;;;;;;;;;5054228;28;20405;-75
2021/09/28 14:56:05;;;;;;;25.95;7.13;;;;;;;;;;5052726;28;20055;-75
2021/09/28 14:58:32;;;;;;;25.42;7.03;;;;;;;;;;5052841;28;20384;-78
2021/09/28 15:01:00;;;;;;;23.02;7.35;;;;;;;;;;5052516;28;20052;-74
2021/09/28 15:03:28;;;;;;;29.15;7.53;;;;;;;;;;5051673;28;20166;-74